Time;durP1;ratioP1;P1;durP2;ratioP2;P2;SDS_P1;SDS_P2;PMS_P1;PMS_P2;Temp;Humidity;BMP_temperature;BMP_pressure;BME280_temperature;BME280_humidity;BME280_pressure;Samples;Min_cycle;Max_cycle;Signal;HPM_P1;HPM_P2
2022/07/24 00:00:07;;;;;;;9.87;8.77;;;;;;;15.62;100.00;101172.25;688760;28;1257;-44
2022/07/24 00:00:32;;;;;;;12.00;9.07;;;;;;;15.61;100.00;101174.91;688960;28;1204;-45
2022/07/24 00:00:53;;;;;;;9.55;8.05;;;;;;;15.61;100.00;101178.41;690005;28;4377;-45
2022/07/24 00:01:13;;;;;;;9.10;8.10;;;;;;;15.62;100.00;101166.13;690445;28;937;-46
2022/07/24 00:01:35;;;;;;;9.00;8.10;;;;;;;15.58;100.00;101167.91;691154;28;1120;-45
2022/07/24 00:01:55;;;;;;;9.10;8.13;;;;;;;15.53;100.00;101172.41;686659;28;1096;-45
2022/07/24 00:02:15;;;;;;;8.88;7.97;;;;;;;15.56;100.00;101175.00;685695;28;964;-46
2022/07/24 00:02:36;;;;;;;8.83;7.97;;;;;;;15.57;100.00;101171.44;686057;28;1332;-45
2022/07/24 00:02:56;;;;;;;9.35;8.02;;;;;;;15.56;100.00;101169.72;687031;28;901;-45
2022/07/24 00:03:17;;;;;;;9.23;8.27;;;;;;;15.59;100.00;101164.41;683333;28;1348;-45
2022/07/24 00:03:37;;;;;;;9.33;8.17;;;;;;;15.57;100.00;101171.44;683929;28;1151;-46
2022/07/24 00:03:57;;;;;;;8.93;8.02;;;;;;;15.62;100.00;101168.75;688995;28;4486;-45
2022/07/24 00:04:18;;;;;;;8.57;7.77;;;;;;;15.64;100.00;101173.06;688275;28;1138;-46
2022/07/24 00:04:38;;;;;;;9.60;8.50;;;;;;;15.62;100.00;101171.38;690333;28;1060;-46
2022/07/24 00:05:01;;;;;;;10.57;8.70;;;;;;;15.58;100.00;101173.19;688841;28;992;-45
2022/07/24 00:05:21;;;;;;;11.35;8.80;;;;;;;15.59;100.00;101172.31;688454;28;1228;-44
2022/07/24 00:05:42;;;;;;;11.07;8.47;;;;;;;15.60;100.00;101167.88;688914;28;1301;-47
2022/07/24 00:06:02;;;;;;;10.57;8.40;;;;;;;15.58;100.00;101175.81;685961;28;832;-46
2022/07/24 00:06:23;;;;;;;9.63;8.67;;;;;;;15.56;100.00;101171.47;686267;28;1104;-45
2022/07/24 00:06:43;;;;;;;9.07;8.10;;;;;;;15.57;100.00;101174.09;687236;28;1169;-45
2022/07/24 00:07:03;;;;;;;9.97;8.03;;;;;;;15.59;100.00;101174.06;685449;28;4550;-48
2022/07/24 00:07:25;;;;;;;10.10;8.35;;;;;;;15.56;100.00;101167.09;685788;28;1247;-45
2022/07/24 00:07:45;;;;;;;8.95;8.05;;;;;;;15.55;100.00;101167.09;685661;28;1322;-45
2022/07/24 00:08:06;;;;;;;8.98;8.07;;;;;;;15.51;100.00;101168.94;687697;28;1010;-46
2022/07/24 00:08:26;;;;;;;9.63;8.20;;;;;;;15.48;100.00;101166.34;687487;28;1131;-45
2022/07/24 00:08:47;;;;;;;9.90;8.55;;;;;;;15.47;100.00;101169.88;686389;28;993;-47
2022/07/24 00:09:07;;;;;;;9.40;8.50;;;;;;;15.50;100.00;101164.53;687410;28;1420;-45
2022/07/24 00:09:28;;;;;;;10.88;8.48;;;;;;;15.50;100.00;101172.44;686683;28;1277;-46
2022/07/24 00:09:48;;;;;;;10.60;8.33;;;;;;;15.50;100.00;101172.44;686240;28;4486;-47
2022/07/24 00:10:09;;;;;;;9.60;8.02;;;;;;;15.51;100.00;101168.94;686221;28;1415;-45
2022/07/24 00:10:31;;;;;;;10.40;8.15;;;;;;;15.48;100.00;101161.94;686274;28;1013;-45
2022/07/24 00:10:51;;;;;;;9.07;8.18;;;;;;;15.47;100.00;101164.59;687587;28;1111;-48
2022/07/24 00:11:12;;;;;;;8.70;7.90;;;;;;;15.48;100.00;101174.25;685501;28;1143;-45
2022/07/24 00:11:33;;;;;;;8.93;8.03;;;;;;;15.47;100.00;101170.75;685069;28;1045;-46
2022/07/24 00:11:53;;;;;;;9.27;8.30;;;;;;;15.45;100.00;101164.63;686033;28;1286;-45
2022/07/24 00:12:13;;;;;;;9.48;8.48;;;;;;;15.47;100.00;101173.38;684473;28;1049;-45
2022/07/24 00:12:34;;;;;;;9.13;8.30;;;;;;;15.48;100.00;101166.34;687113;28;977;-46
2022/07/24 00:12:54;;;;;;;9.68;8.35;;;;;;;15.51;100.00;101174.19;687412;28;4560;-46
2022/07/24 00:13:15;;;;;;;9.73;8.27;;;;;;;15.53;100.00;101169.75;687142;28;1170;-46
2022/07/24 00:13:35;;;;;;;10.00;8.17;;;;;;;15.57;100.00;101179.34;689386;28;1035;-46
2022/07/24 00:13:56;;;;;;;9.32;8.15;;;;;;;15.55;100.00;101167.97;690204;28;1233;-47
2022/07/24 00:14:16;;;;;;;9.00;8.07;;;;;;;15.53;100.00;101164.50;688913;28;1008;-45
2022/07/24 00:14:37;;;;;;;9.50;8.30;;;;;;;15.54;100.00;101170.66;690261;28;1158;-47
2022/07/24 00:14:57;;;;;;;9.45;8.43;;;;;;;15.51;100.00;101171.56;688995;28;1814;-45
2022/07/24 00:15:18;;;;;;;9.40;8.50;;;;;;;15.53;100.00;101176.81;689251;28;1934;-45
2022/07/24 00:15:38;;;;;;;9.80;8.80;;;;;;;15.50;100.00;101175.09;688386;28;1414;-45
2022/07/24 00:15:59;;;;;;;9.57;8.57;;;;;;;15.53;100.00;101175.03;689161;28;4658;-46
2022/07/24 00:16:19;;;;;;;9.30;8.40;;;;;;;15.54;100.00;101171.50;689967;28;985;-45
2022/07/24 00:16:39;;;;;;;9.20;8.30;;;;;;;15.54;100.00;101173.28;692146;28;1305;-46
2022/07/24 00:17:00;;;;;;;9.73;8.73;;;;;;;15.57;100.00;101173.22;690152;28;1277;-46
2022/07/24 00:17:20;;;;;;;8.70;7.90;;;;;;;15.58;100.00;101172.34;690481;28;1031;-45
2022/07/24 00:17:41;;;;;;;9.57;8.00;;;;;;;15.58;100.00;101172.34;691381;28;912;-45
2022/07/24 00:18:01;;;;;;;8.82;7.88;;;;;;;15.60;100.00;101170.53;689285;28;1146;-45
2022/07/24 00:18:21;;;;;;;8.93;8.03;;;;;;;15.60;100.00;101175.78;690883;28;1461;-46
2022/07/24 00:18:42;;;;;;;9.25;8.25;;;;;;;15.60;100.00;101174.06;692416;28;1051;-45
2022/07/24 00:19:02;;;;;;;9.37;8.37;;;;;;;15.53;100.00;101168.91;691211;28;4328;-45
2022/07/24 00:19:23;;;;;;;9.30;8.25;;;;;;;15.49;100.00;101168.97;692049;28;3968;-46
2022/07/24 00:19:43;;;;;;;9.33;8.40;;;;;;;15.47;100.00;101175.16;692265;28;1005;-47
2022/07/24 00:20:06;;;;;;;9.05;8.02;;;;;;;15.48;100.00;101169.00;691928;28;918;-45
2022/07/24 00:20:27;;;;;;;9.10;8.20;;;;;;;15.48;100.00;101167.22;690192;28;1186;-46
2022/07/24 00:20:47;;;;;;;10.10;8.53;;;;;;;15.49;100.00;101168.06;688949;28;1055;-47
2022/07/24 00:21:07;;;;;;;10.27;8.43;;;;;;;15.50;100.00;101169.81;688244;28;1281;-45
2022/07/24 00:21:28;;;;;;;9.20;8.20;;;;;;;15.50;100.00;101165.41;690805;28;1292;-47
2022/07/24 00:21:48;;;;;;;9.40;8.40;;;;;;;15.52;100.00;101164.53;688317;28;4515;-46
2022/07/24 00:22:09;;;;;;;9.68;8.68;;;;;;;15.55;100.00;101173.25;689204;28;1307;-47
2022/07/24 00:22:29;;;;;;;9.43;8.27;;;;;;;15.56;100.00;101175.00;689088;28;943;-46
2022/07/24 00:22:50;;;;;;;9.27;8.20;;;;;;;15.55;100.00;101170.63;687322;28;915;-45
2022/07/24 00:23:10;;;;;;;9.27;7.97;;;;;;;15.59;100.00;101169.66;686755;28;1105;-46
2022/07/24 00:23:31;;;;;;;9.80;8.23;;;;;;;15.61;100.00;101170.50;687846;28;1324;-47
2022/07/24 00:23:51;;;;;;;9.27;8.37;;;;;;;15.58;100.00;101172.34;686049;28;1142;-44
2022/07/24 00:24:11;;;;;;;8.97;8.07;;;;;;;15.57;100.00;101176.72;686138;28;840;-45
2022/07/24 00:24:32;;;;;;;8.90;8.00;;;;;;;15.58;100.00;101173.19;687362;28;844;-49
2022/07/24 00:24:52;;;;;;;9.05;8.15;;;;;;;15.57;100.00;101168.81;688921;28;4539;-46
2022/07/24 00:25:12;;;;;;;9.40;8.50;;;;;;;15.54;100.00;101170.66;690090;28;1294;-47
2022/07/24 00:25:33;;;;;;;9.47;8.57;;;;;;;15.53;100.00;101174.16;686535;28;1232;-46
2022/07/24 00:25:53;;;;;;;9.23;8.32;;;;;;;15.53;100.00;101168.91;689056;28;863;-46
2022/07/24 00:26:14;;;;;;;9.10;8.20;;;;;;;15.53;100.00;101172.41;690703;28;991;-45
2022/07/24 00:26:34;;;;;;;8.87;7.97;;;;;;;15.58;100.00;101167.91;690657;28;891;-46
2022/07/24 00:26:55;;;;;;;8.93;8.02;;;;;;;15.56;100.00;101169.72;690379;28;864;-47
2022/07/24 00:27:16;;;;;;;9.30;7.90;;;;;;;15.56;100.00;101166.22;686542;28;1192;-45
2022/07/24 00:27:37;;;;;;;8.80;7.68;;;;;;;15.59;100.00;101168.78;689663;28;820;-47
2022/07/24 00:27:57;;;;;;;9.93;8.13;;;;;;;15.56;100.00;101167.09;688995;28;4393;-46
2022/07/24 00:28:17;;;;;;;9.87;8.20;;;;;;;15.54;100.00;101174.16;690507;28;1335;-47
2022/07/24 00:28:38;;;;;;;9.32;8.05;;;;;;;15.55;100.00;101170.63;690198;28;943;-45
2022/07/24 00:28:58;;;;;;;8.83;7.93;;;;;;;15.61;100.00;101167.88;689549;28;1308;-46
2022/07/24 00:29:19;;;;;;;9.25;8.35;;;;;;;15.62;100.00;101159.06;692441;28;1387;-46
2022/07/24 00:29:39;;;;;;;9.40;8.33;;;;;;;15.62;100.00;101174.88;692034;28;817;-46
2022/07/24 00:30:02;;;;;;;9.10;8.20;;;;;;;15.61;100.00;101173.13;689796;28;833;-46
2022/07/24 00:30:22;;;;;;;9.18;8.18;;;;;;;15.62;100.00;101166.13;689008;28;974;-46
2022/07/24 00:30:43;;;;;;;10.10;8.23;;;;;;;15.62;100.00;101174.88;689394;28;1058;-45
2022/07/24 00:31:05;;;;;;;9.13;8.05;;;;;;;15.69;100.00;101172.13;689092;28;4342;-46
2022/07/24 00:31:25;;;;;;;8.52;7.70;;;;;;;15.66;100.00;101175.72;688152;28;1135;-46
2022/07/24 00:31:46;;;;;;;9.13;8.20;;;;;;;15.62;100.00;101172.25;688628;28;1395;-48
2022/07/24 00:32:06;;;;;;;8.98;8.05;;;;;;;15.62;100.00;101169.59;688693;28;1246;-45
2022/07/24 00:32:27;;;;;;;9.00;8.03;;;;;;;15.58;100.00;101167.91;688698;28;1493;-45
2022/07/24 00:32:47;;;;;;;9.60;8.10;;;;;;;15.58;100.00;101167.91;691282;28;1384;-46
2022/07/24 00:33:08;;;;;;;9.05;7.90;;;;;;;15.57;100.00;101171.44;689311;28;1228;-45
2022/07/24 00:33:28;;;;;;;9.77;7.93;;;;;;;15.59;100.00;101172.31;691193;28;911;-45
2022/07/24 00:33:48;;;;;;;9.60;8.00;;;;;;;15.61;100.00;101173.13;690771;28;4508;-47
2022/07/24 00:34:09;;;;;;;10.20;8.13;;;;;;;15.63;100.00;101176.63;690526;28;1274;-45
2022/07/24 00:34:29;;;;;;;10.00;8.40;;;;;;;15.57;100.00;101171.44;691152;28;904;-45
2022/07/24 00:34:50;;;;;;;9.20;8.20;;;;;;;15.57;100.00;101175.84;688843;28;956;-46
2022/07/24 00:35:12;;;;;;;9.23;7.90;;;;;;;15.54;100.00;101171.50;688154;28;1925;-45
2022/07/24 00:35:33;;;;;;;9.43;8.02;;;;;;;15.53;100.00;101175.03;687994;28;1218;-46
2022/07/24 00:35:53;;;;;;;9.33;7.83;;;;;;;15.53;100.00;101175.03;688217;28;960;-45
2022/07/24 00:36:14;;;;;;;9.67;7.63;;;;;;;15.50;100.00;101170.69;689199;28;1249;-45
2022/07/24 00:36:35;;;;;;;9.18;7.90;;;;;;;15.50;100.00;101170.69;690428;28;1047;-45
2022/07/24 00:36:55;;;;;;;10.23;8.03;;;;;;;15.52;100.00;101172.44;689091;28;4578;-46
2022/07/24 00:37:16;;;;;;;9.57;8.03;;;;;;;15.49;100.00;101170.72;689746;28;1316;-45
2022/07/24 00:37:36;;;;;;;8.55;7.72;;;;;;;15.48;100.00;101172.47;691063;28;1298;-46
2022/07/24 00:37:56;;;;;;;9.10;7.90;;;;;;;15.50;100.00;101170.69;687671;28;1299;-45
2022/07/24 00:38:17;;;;;;;10.73;8.18;;;;;;;15.49;100.00;101168.06;687256;28;1373;-45
2022/07/24 00:38:37;;;;;;;9.37;8.20;;;;;;;15.47;100.00;101165.47;690232;28;789;-45
2022/07/24 00:38:58;;;;;;;9.07;8.13;;;;;;;15.46;100.00;101169.00;687776;28;1072;-45
2022/07/24 00:39:18;;;;;;;8.80;7.70;;;;;;;15.47;100.00;101170.75;689005;28;1028;-46
2022/07/24 00:39:38;;;;;;;9.52;8.10;;;;;;;15.52;100.00;101168.03;687346;28;1013;-45
2022/07/24 00:39:59;;;;;;;10.03;7.90;;;;;;;15.55;100.00;101161.81;691123;28;4472;-46
2022/07/24 00:40:20;;;;;;;9.83;8.03;;;;;;;15.53;100.00;101167.13;688902;28;1164;-47
2022/07/24 00:40:40;;;;;;;9.95;8.00;;;;;;;15.52;100.00;101162.78;688295;28;1103;-47
2022/07/24 00:41:01;;;;;;;8.47;7.47;;;;;;;15.53;100.00;101167.13;690185;28;812;-45
2022/07/24 00:41:21;;;;;;;8.40;7.60;;;;;;;15.50;100.00;101162.78;688772;28;1043;-46
2022/07/24 00:41:42;;;;;;;8.98;8.07;;;;;;;15.50;100.00;101170.69;690580;28;4935;-46
2022/07/24 00:42:02;;;;;;;8.77;7.88;;;;;;;15.52;100.00;101162.78;691393;28;1159;-45
2022/07/24 00:42:23;;;;;;;10.03;8.40;;;;;;;15.48;100.00;101167.22;690287;28;959;-45
2022/07/24 00:42:43;;;;;;;9.55;8.55;;;;;;;15.44;100.00;101165.53;689802;28;982;-46
2022/07/24 00:43:04;;;;;;;8.60;7.80;;;;;;;15.46;100.00;101168.13;688935;28;4497;-45
2022/07/24 00:43:25;;;;;;;8.93;7.75;;;;;;;15.44;100.00;101159.41;690725;28;1011;-45
2022/07/24 00:44:06;;;;;;;9.47;7.73;;;;;;;15.43;100.00;101161.16;688200;28;1070;-45
2022/07/24 00:44:26;;;;;;;9.82;7.75;;;;;;;15.46;100.00;101160.22;692295;28;1221;-45
2022/07/24 00:44:47;;;;;;;9.10;7.70;;;;;;;15.45;100.00;101167.28;691122;28;1157;-45
2022/07/24 00:45:08;;;;;;;9.07;7.80;;;;;;;15.45;100.00;101162.00;690198;28;1109;-47
2022/07/24 00:45:29;;;;;;;8.75;7.72;;;;;;;15.45;100.00;101166.38;691203;28;1042;-47
2022/07/24 00:45:49;;;;;;;8.63;7.72;;;;;;;15.44;100.00;101162.03;687223;28;4476;-46
2022/07/24 00:46:09;;;;;;;9.30;7.90;;;;;;;15.41;100.00;101165.59;688920;28;892;-47
2022/07/24 00:46:31;;;;;;;10.23;8.23;;;;;;;15.45;100.00;101161.13;689261;28;1198;-45
2022/07/24 00:46:51;;;;;;;9.27;8.18;;;;;;;15.46;100.00;101162.88;689833;28;1134;-45
2022/07/24 00:47:11;;;;;;;9.00;7.97;;;;;;;15.46;100.00;101162.88;687985;28;1307;-45
2022/07/24 00:47:32;;;;;;;9.00;8.10;;;;;;;15.45;100.00;101163.75;689877;28;1054;-45
2022/07/24 00:47:52;;;;;;;9.47;7.80;;;;;;;15.45;100.00;101163.75;687948;28;1520;-45
2022/07/24 00:48:13;;;;;;;9.98;8.15;;;;;;;15.46;100.00;101161.09;689732;28;1125;-45
2022/07/24 00:48:33;;;;;;;9.00;8.10;;;;;;;15.45;100.00;101161.13;686373;28;883;-47
2022/07/24 00:48:53;;;;;;;9.25;8.20;;;;;;;15.42;100.00;101159.41;684915;28;4885;-45
2022/07/24 00:49:16;;;;;;;10.10;8.57;;;;;;;15.40;100.00;101163.84;685811;28;964;-48
2022/07/24 00:49:37;;;;;;;10.40;8.10;;;;;;;15.38;100.00;101159.50;686238;28;804;-47
2022/07/24 00:49:57;;;;;;;9.10;8.10;;;;;;;15.39;100.00;101162.09;686678;28;1068;-45
2022/07/24 00:50:18;;;;;;;8.82;7.90;;;;;;;15.42;100.00;101162.03;688828;28;947;-45
2022/07/24 00:50:39;;;;;;;11.75;7.93;;;;;;;15.46;100.00;101161.09;689678;28;1098;-46
2022/07/24 00:50:59;;;;;;;9.05;7.60;;;;;;;15.45;100.00;101161.13;688710;28;1374;-47
2022/07/24 00:51:20;;;;;;;8.80;7.40;;;;;;;15.41;100.00;101159.44;688501;28;1491;-45
2022/07/24 00:51:42;;;;;;;8.93;7.40;;;;;;;15.38;100.00;101163.00;688866;28;933;-46
2022/07/24 00:52:03;;;;;;;8.90;8.00;;;;;;;15.35;100.00;101164.81;688635;28;4569;-47
2022/07/24 00:52:23;;;;;;;8.57;7.68;;;;;;;15.36;100.00;101161.28;689419;28;1365;-45
2022/07/24 00:52:44;;;;;;;8.40;7.43;;;;;;;15.40;100.00;101152.44;689417;28;1050;-46
2022/07/24 00:53:05;;;;;;;8.73;7.90;;;;;;;15.36;100.00;101159.50;688822;28;1111;-46
2022/07/24 00:53:25;;;;;;;9.15;8.15;;;;;;;15.30;100.00;101163.13;690188;28;876;-47
2022/07/24 00:53:46;;;;;;;8.77;7.90;;;;;;;15.26;100.00;101161.44;691595;28;1138;-45
2022/07/24 00:54:08;;;;;;;9.20;8.30;;;;;;;15.30;100.00;101162.25;690664;28;1130;-45
2022/07/24 00:54:29;;;;;;;8.75;7.82;;;;;;;15.30;100.00;101163.13;690951;28;988;-45
2022/07/24 00:54:49;;;;;;;8.65;7.70;;;;;;;15.30;100.00;101157.00;690663;28;4444;-45
2022/07/24 00:55:11;;;;;;;8.83;7.60;;;;;;;15.29;100.00;101169.28;691168;28;1918;-45
2022/07/24 00:55:33;;;;;;;8.48;7.20;;;;;;;15.27;100.00;101157.91;691735;28;1080;-46
2022/07/24 00:55:54;;;;;;;8.93;7.55;;;;;;;15.23;100.00;101166.75;689834;28;1130;-46
2022/07/24 00:56:14;;;;;;;9.02;8.07;;;;;;;15.23;100.00;101165.88;691031;28;990;-45
2022/07/24 00:56:35;;;;;;;8.63;7.83;;;;;;;15.25;100.00;101169.38;688101;28;1422;-45
2022/07/24 00:56:55;;;;;;;8.45;7.65;;;;;;;15.30;100.00;101168.41;689740;28;887;-45
2022/07/24 00:57:15;;;;;;;8.73;7.60;;;;;;;15.33;100.00;101168.34;688763;28;1266;-45
2022/07/24 00:57:36;;;;;;;9.40;8.10;;;;;;;15.33;100.00;101163.06;688839;28;1035;-45
2022/07/24 00:57:56;;;;;;;8.73;7.77;;;;;;;15.36;100.00;101161.28;687962;28;4609;-46
2022/07/24 00:58:16;;;;;;;8.57;7.60;;;;;;;15.36;100.00;101161.28;689624;28;1220;-46
2022/07/24 00:58:37;;;;;;;9.10;7.70;;;;;;;15.41;100.00;101162.06;686925;28;1115;-45
2022/07/24 00:58:59;;;;;;;8.50;7.40;;;;;;;15.43;100.00;101158.50;687249;28;1101;-45
2022/07/24 00:59:20;;;;;;;8.48;7.65;;;;;;;15.43;100.00;101160.28;686956;28;928;-46
2022/07/24 00:59:40;;;;;;;8.45;7.50;;;;;;;15.42;100.00;101156.75;687671;28;1103;-46
2022/07/24 01:00:01;;;;;;;8.70;7.57;;;;;;;15.43;100.00;101162.91;687995;28;1252;-45
2022/07/24 01:00:22;;;;;;;8.73;7.70;;;;;;;15.42;100.00;101156.75;687353;28;1370;-45
2022/07/24 01:00:42;;;;;;;8.73;7.80;;;;;;;15.42;100.00;101162.03;690078;28;1201;-46
2022/07/24 01:01:02;;;;;;;8.43;7.63;;;;;;;15.44;100.00;101162.88;688165;28;4728;-45
2022/07/24 01:01:23;;;;;;;8.50;7.60;;;;;;;15.42;100.00;101163.81;689280;28;1222;-46
2022/07/24 01:01:43;;;;;;;10.32;7.95;;;;;;;15.40;100.00;101165.63;690068;28;1634;-45
2022/07/24 01:02:03;;;;;;;9.40;7.70;;;;;;;15.39;100.00;101163.88;688275;28;1162;-46
2022/07/24 01:02:24;;;;;;;8.30;7.40;;;;;;;15.37;100.00;101165.63;690197;28;1245;-46
2022/07/24 01:02:45;;;;;;;9.17;7.77;;;;;;;15.36;100.00;101166.56;688333;28;1202;-46
2022/07/24 01:03:05;;;;;;;8.63;7.40;;;;;;;15.35;100.00;101164.81;688170;28;1180;-46
2022/07/24 01:03:25;;;;;;;8.63;7.73;;;;;;;15.33;100.00;101162.22;685696;28;1039;-46
2022/07/24 01:03:46;;;;;;;8.70;7.90;;;;;;;15.33;100.00;101163.06;685957;28;1281;-47
2022/07/24 01:04:07;;;;;;;8.47;7.63;;;;;;;15.33;100.00;101160.44;687158;28;4553;-45
2022/07/24 01:04:27;;;;;;;9.00;7.93;;;;;;;15.30;100.00;101170.16;685398;28;1186;-46
2022/07/24 01:04:48;;;;;;;8.70;7.87;;;;;;;15.25;100.00;101175.50;686575;28;1068;-45
2022/07/24 01:05:10;;;;;;;8.95;8.05;;;;;;;15.21;100.00;101168.53;686964;28;1057;-46
2022/07/24 01:05:30;;;;;;;9.10;8.10;;;;;;;15.14;100.00;101166.91;689624;28;1044;-47
2022/07/24 01:05:51;;;;;;;9.27;8.37;;;;;;;15.11;100.00;101166.94;688600;28;1239;-47
2022/07/24 01:06:12;;;;;;;8.90;8.00;;;;;;;15.12;100.00;101173.97;689513;28;1261;-45
2022/07/24 01:06:32;;;;;;;8.70;7.90;;;;;;;15.16;100.00;101165.13;688503;28;1246;-45
2022/07/24 01:06:53;;;;;;;8.95;8.05;;;;;;;15.16;100.00;101167.75;689684;28;4512;-45
2022/07/24 01:07:14;;;;;;;9.30;8.30;;;;;;;15.22;100.00;101164.16;689075;28;1048;-45
2022/07/24 01:07:35;;;;;;;8.38;7.53;;;;;;;15.22;100.00;101174.69;689096;28;1329;-46
2022/07/24 01:07:55;;;;;;;8.73;7.67;;;;;;;15.25;100.00;101174.63;688055;28;1325;-45
2022/07/24 01:08:16;;;;;;;9.30;8.00;;;;;;;15.30;100.00;101171.03;688415;28;1151;-46
2022/07/24 01:08:37;;;;;;;9.05;7.95;;;;;;;15.28;100.00;101170.16;686819;28;1277;-46
2022/07/24 01:08:57;;;;;;;8.57;7.67;;;;;;;15.26;100.00;101166.69;686306;28;935;-45
2022/07/24 01:09:18;;;;;;;8.52;7.63;;;;;;;15.27;100.00;101167.56;686566;28;992;-45
2022/07/24 01:09:39;;;;;;;8.70;7.80;;;;;;;15.25;100.00;101170.22;686310;28;1637;-45
2022/07/24 01:10:00;;;;;;;8.93;8.02;;;;;;;15.22;100.00;101165.00;684988;28;5325;-46
2022/07/24 01:10:21;;;;;;;9.00;7.95;;;;;;;15.20;100.00;101169.41;685953;28;948;-45
2022/07/24 01:10:41;;;;;;;9.20;8.10;;;;;;;15.20;100.00;101165.94;688893;28;1080;-47
2022/07/24 01:11:04;;;;;;;9.32;8.10;;;;;;;15.21;100.00;101168.53;689435;28;1162;-45
2022/07/24 01:11:25;;;;;;;8.93;7.72;;;;;;;15.20;100.00;101174.69;688732;28;1086;-46
2022/07/24 01:11:45;;;;;;;8.50;7.60;;;;;;;15.26;100.00;101165.84;689522;28;1127;-45
2022/07/24 01:12:06;;;;;;;8.50;7.57;;;;;;;15.25;100.00;101164.97;688381;28;1091;-46
2022/07/24 01:12:26;;;;;;;8.43;7.60;;;;;;;15.24;100.00;101172.88;688640;28;1056;-46
2022/07/24 01:12:47;;;;;;;9.43;7.53;;;;;;;15.24;100.00;101170.25;689409;28;1095;-47
2022/07/24 01:13:09;;;;;;;9.27;7.80;;;;;;;15.25;100.00;101169.38;689939;28;4347;-47
2022/07/24 01:13:31;;;;;;;9.02;8.00;;;;;;;15.23;100.00;101171.13;689327;28;1211;-45
2022/07/24 01:13:51;;;;;;;10.23;8.05;;;;;;;15.20;100.00;101174.69;689402;28;1166;-46
2022/07/24 01:14:15;;;;;;;9.70;7.83;;;;;;;15.18;100.00;101173.84;688992;28;1123;-46
2022/07/24 01:14:35;;;;;;;8.50;7.60;;;;;;;15.18;100.00;101168.59;689918;28;1425;-45
2022/07/24 01:14:55;;;;;;;8.67;7.80;;;;;;;15.19;100.00;101172.97;688685;28;1143;-45
2022/07/24 01:15:16;;;;;;;9.17;7.90;;;;;;;15.20;100.00;101173.81;688422;28;1918;-45
2022/07/24 01:15:36;;;;;;;9.33;7.80;;;;;;;15.22;100.00;101177.31;688643;28;3719;-47
2022/07/24 01:15:58;;;;;;;8.13;7.30;;;;;;;15.25;100.00;101172.84;692213;28;4336;-45
2022/07/24 01:16:19;;;;;;;8.35;7.45;;;;;;;15.23;100.00;101176.41;690239;28;1285;-47
2022/07/24 01:16:39;;;;;;;8.73;7.90;;;;;;;15.19;100.00;101179.97;692116;28;1082;-45
2022/07/24 01:16:59;;;;;;;8.90;8.02;;;;;;;15.20;100.00;101177.31;691705;28;1031;-45
2022/07/24 01:17:20;;;;;;;8.97;8.07;;;;;;;15.20;100.00;101172.06;691209;28;1010;-46
2022/07/24 01:17:41;;;;;;;9.10;7.82;;;;;;;15.22;100.00;101169.41;691082;28;1154;-46
2022/07/24 01:18:02;;;;;;;8.65;7.72;;;;;;;15.19;100.00;101170.34;689242;28;1127;-45
2022/07/24 01:18:22;;;;;;;8.50;7.60;;;;;;;15.18;100.00;101173.84;689308;28;1574;-46
2022/07/24 01:18:43;;;;;;;8.83;7.77;;;;;;;15.16;100.00;101170.41;689120;28;1004;-47
2022/07/24 01:19:04;;;;;;;8.60;7.60;;;;;;;15.17;100.00;101171.25;687676;28;4422;-45
2022/07/24 01:19:24;;;;;;;9.80;7.50;;;;;;;15.21;100.00;101172.94;688365;28;1657;-45
2022/07/24 01:19:44;;;;;;;8.85;7.47;;;;;;;15.17;100.00;101172.09;688610;28;1083;-48
2022/07/24 01:20:06;;;;;;;8.27;7.47;;;;;;;15.19;100.00;101175.59;688822;28;1120;-46
2022/07/24 01:20:26;;;;;;;8.98;8.07;;;;;;;15.20;100.00;101169.41;690218;28;1186;-46
2022/07/24 01:20:47;;;;;;;8.50;7.70;;;;;;;15.18;100.00;101168.59;688741;28;1158;-46
2022/07/24 01:21:08;;;;;;;8.93;8.02;;;;;;;15.16;100.00;101178.28;689598;28;1098;-46
2022/07/24 01:21:28;;;;;;;8.80;7.88;;;;;;;15.12;100.00;101172.19;689225;28;1193;-45
2022/07/24 01:21:51;;;;;;;8.90;8.00;;;;;;;15.10;100.00;101173.09;689201;28;4911;-48
2022/07/24 01:22:11;;;;;;;8.57;7.65;;;;;;;15.05;100.00;101183.72;688750;28;1222;-48
2022/07/24 01:22:31;;;;;;;8.57;7.60;;;;;;;15.04;100.00;101186.38;685307;28;1138;-47
2022/07/24 01:22:52;;;;;;;8.60;7.80;;;;;;;15.04;100.00;101175.84;685064;28;1270;-45
2022/07/24 01:23:13;;;;;;;9.05;8.15;;;;;;;15.06;100.00;101168.78;686080;28;1191;-45
2022/07/24 01:23:34;;;;;;;9.30;8.40;;;;;;;15.05;100.00;101180.19;685566;28;1119;-45
2022/07/24 01:23:54;;;;;;;9.10;8.23;;;;;;;15.02;100.00;101174.97;689024;28;1114;-46
2022/07/24 01:24:15;;;;;;;9.20;8.23;;;;;;;14.98;100.00;101177.66;688441;28;1174;-45
2022/07/24 01:24:36;;;;;;;9.30;8.35;;;;;;;15.00;100.00;101179.41;689896;28;1132;-46
2022/07/24 01:24:56;;;;;;;8.87;8.00;;;;;;;15.04;100.00;101175.84;689457;28;4520;-47
2022/07/24 01:25:16;;;;;;;8.52;7.40;;;;;;;15.08;100.00;101178.41;689636;28;1044;-45
2022/07/24 01:25:37;;;;;;;8.03;7.23;;;;;;;15.05;100.00;101175.81;689098;28;1130;-45
2022/07/24 01:25:57;;;;;;;10.00;7.30;;;;;;;15.05;100.00;101178.44;688785;28;1043;-45
2022/07/24 01:26:18;;;;;;;9.25;7.70;;;;;;;15.05;100.00;101178.44;688174;28;1039;-47
2022/07/24 01:26:38;;;;;;;9.47;8.20;;;;;;;14.98;100.00;101182.94;689282;28;1091;-45
2022/07/24 01:26:58;;;;;;;9.50;8.10;;;;;;;14.92;100.00;101177.75;692565;28;1181;-45
2022/07/24 01:27:20;;;;;;;9.13;8.23;;;;;;;14.92;100.00;101182.16;690531;28;1050;-46
2022/07/24 01:27:41;;;;;;;10.10;8.48;;;;;;;14.92;100.00;101177.75;690978;28;1197;-45
2022/07/24 01:28:01;;;;;;;9.57;8.50;;;;;;;14.94;100.00;101181.25;690474;28;4477;-45
2022/07/24 01:28:22;;;;;;;9.37;8.37;;;;;;;14.93;100.00;101176.84;690380;28;1327;-46
2022/07/24 01:28:43;;;;;;;9.90;8.52;;;;;;;14.90;100.00;101183.94;691087;28;1068;-45
2022/07/24 01:29:03;;;;;;;11.02;8.55;;;;;;;14.89;100.00;101177.78;689090;28;1153;-46
2022/07/24 01:29:24;;;;;;;9.60;8.37;;;;;;;14.93;100.00;101184.75;689408;28;1079;-46
2022/07/24 01:29:44;;;;;;;8.90;7.85;;;;;;;14.98;100.00;101176.78;689677;28;1475;-46
2022/07/24 01:30:05;;;;;;;9.47;7.90;;;;;;;15.00;100.00;101182.91;688199;28;945;-45
2022/07/24 01:30:26;;;;;;;9.32;7.63;;;;;;;15.07;100.00;101178.44;688785;28;1125;-46
2022/07/24 01:30:46;;;;;;;8.45;7.60;;;;;;;15.07;100.00;101178.44;689683;28;789;-45
2022/07/24 01:31:07;;;;;;;8.65;7.55;;;;;;;15.09;100.00;101180.16;688419;28;4520;-46
2022/07/24 01:31:27;;;;;;;8.83;7.60;;;;;;;15.11;100.00;101174.84;689500;28;1186;-44
2022/07/24 01:31:47;;;;;;;8.90;8.00;;;;;;;15.12;100.00;101176.59;688233;28;1073;-49
2022/07/24 01:32:08;;;;;;;9.20;8.30;;;;;;;15.10;100.00;101170.47;688884;28;1257;-46
2022/07/24 01:32:28;;;;;;;8.70;7.80;;;;;;;15.11;100.00;101180.13;688030;28;999;-48
2022/07/24 01:32:49;;;;;;;9.60;7.50;;;;;;;15.11;100.00;101173.06;689065;28;1060;-47
2022/07/24 01:33:09;;;;;;;8.63;7.70;;;;;;;15.15;100.00;101177.41;690397;28;952;-46
2022/07/24 01:33:30;;;;;;;9.63;7.67;;;;;;;15.21;100.00;101186.97;688384;28;1060;-47
2022/07/24 01:33:50;;;;;;;9.82;7.45;;;;;;;15.23;100.00;101174.66;688464;28;4380;-45
2022/07/24 01:34:11;;;;;;;8.20;7.40;;;;;;;15.23;100.00;101181.66;688375;28;970;-46
2022/07/24 01:34:31;;;;;;;8.70;7.80;;;;;;;15.18;100.00;101173.00;688264;28;1083;-45
2022/07/24 01:34:51;;;;;;;9.17;7.90;;;;;;;15.15;100.00;101173.91;687060;28;1152;-45
2022/07/24 01:35:12;;;;;;;9.57;7.80;;;;;;;15.09;100.00;101180.16;689218;28;1899;-45
2022/07/24 01:35:32;;;;;;;8.63;7.60;;;;;;;15.10;100.00;101181.00;685509;28;1111;-46
2022/07/24 01:35:53;;;;;;;8.70;7.80;;;;;;;15.14;100.00;101177.44;684532;28;1004;-45
2022/07/24 01:36:13;;;;;;;8.60;7.70;;;;;;;15.15;100.00;101173.91;685787;28;1135;-45
2022/07/24 01:36:33;;;;;;;8.65;7.53;;;;;;;15.11;100.00;101183.59;686793;28;1148;-45
2022/07/24 01:36:56;;;;;;;8.30;7.32;;;;;;;15.11;100.00;101177.47;683718;28;4459;-45
2022/07/24 01:37:16;;;;;;;9.10;7.22;;;;;;;15.08;100.00;101183.66;680658;28;1562;-49
2022/07/24 01:37:37;;;;;;;8.97;7.70;;;;;;;15.06;100.00;101176.69;685998;28;1060;-45